Time;durP1;ratioP1;P1;durP2;ratioP2;P2;SDS_P1;SDS_P2;PMS_P1;PMS_P2;Temp;Humidity;BMP_temperature;BMP_pressure;BME280_temperature;BME280_humidity;BME280_pressure;Samples;Min_cycle;Max_cycle;Signal;HPM_P1;HPM_P2
2022/07/19 00:00:17;;;;;;;6.10;4.00;;;;;;;21.91;46.05;96069.25;5093496;28;20035;-71
2022/07/19 00:02:43;;;;;;;6.63;4.18;;;;;;;21.87;45.02;96076.88;5083526;28;20044;-71
2022/07/19 00:05:09;;;;;;;4.82;4.00;;;;;;;21.87;44.88;96077.69;5093507;28;20104;-71
2022/07/19 00:07:35;;;;;;;6.93;3.92;;;;;;;21.87;45.31;96077.69;5093270;28;20031;-71
2022/07/19 00:10:02;;;;;;;6.53;3.45;;;;;;;21.82;45.04;96074.78;5104486;28;20024;-72
2022/07/19 00:12:28;;;;;;;4.90;3.78;;;;;;;21.75;47.91;96071.28;5097669;28;20086;-71
2022/07/19 00:14:53;;;;;;;6.38;4.60;;;;;;;21.67;47.42;96072.28;5107581;28;20055;-71
2022/07/19 00:17:18;;;;;;;7.72;4.00;;;;;;;21.68;46.98;96071.25;5113646;28;20110;-71
2022/07/19 00:19:44;;;;;;;6.95;3.90;;;;;;;21.64;48.29;96070.00;5113851;28;20104;-71
2022/07/19 00:22:09;;;;;;;5.88;4.30;;;;;;;21.59;46.97;96069.78;5113706;28;20609;-72
2022/07/19 00:24:34;;;;;;;4.13;3.53;;;;;;;21.55;45.93;96073.88;5107083;28;20073;-71
2022/07/19 00:27:00;;;;;;;7.25;4.10;;;;;;;21.50;45.89;96070.97;5087186;28;20020;-71
2022/07/19 00:29:25;;;;;;;6.47;3.85;;;;;;;21.42;47.09;96069.31;5087424;28;20040;-72
2022/07/19 00:31:51;;;;;;;4.32;3.88;;;;;;;21.32;47.60;96070.53;5086279;28;20024;-71
2022/07/19 00:34:16;;;;;;;6.90;3.83;;;;;;;21.25;46.69;96074.19;5094940;28;20036;-71
2022/07/19 00:36:42;;;;;;;6.25;4.20;;;;;;;21.22;47.45;96074.59;5093782;28;20019;-71
2022/07/19 00:39:07;;;;;;;5.93;3.90;;;;;;;21.21;46.79;96072.94;5092967;28;20027;-71
2022/07/19 00:41:40;;;;;;;6.88;4.03;;;;;;;21.16;46.05;96071.69;5093768;28;20020;-72
2022/07/19 00:44:05;;;;;;;6.18;4.15;;;;;;;21.11;47.23;96074.16;5095958;28;20070;-72
2022/07/19 00:46:30;;;;;;;6.00;4.03;;;;;;;21.05;48.98;96069.56;5113487;28;20058;-72
2022/07/19 00:48:56;;;;;;;8.93;3.90;;;;;;;21.02;48.35;96068.16;5113085;28;20062;-72
2022/07/19 00:51:21;;;;;;;12.57;4.18;;;;;;;21.10;47.64;96071.66;5093031;28;20035;-72
2022/07/19 00:53:47;;;;;;;10.77;4.03;;;;;;;21.07;46.89;96070.19;5092878;28;20016;-71
2022/07/19 00:56:14;;;;;;;8.35;4.15;;;;;;;20.95;51.24;96061.91;5086624;28;20521;-72
2022/07/19 00:58:41;;;;;;;7.10;3.95;;;;;;;20.92;50.58;96064.19;5092613;28;20028;-71
2022/07/19 01:01:07;;;;;;;5.88;4.35;;;;;;;20.88;49.62;96064.56;5085235;28;20045;-72
2022/07/19 01:03:38;;;;;;;5.57;4.20;;;;;;;20.85;52.44;96064.94;5092360;28;20028;-72
2022/07/19 01:06:05;;;;;;;6.68;3.95;;;;;;;20.70;49.34;96056.22;5093107;28;20008;-71
2022/07/19 01:08:30;;;;;;;7.97;3.83;;;;;;;20.63;49.95;96063.34;5092450;28;20403;-72
2022/07/19 01:10:56;;;;;;;6.13;3.45;;;;;;;20.63;52.16;96066.03;5092499;28;20031;-72
2022/07/19 01:13:21;;;;;;;6.47;4.07;;;;;;;20.67;50.74;96067.28;5111691;28;20069;-72
2022/07/19 01:15:47;;;;;;;12.55;4.40;;;;;;;20.66;49.27;96058.44;5112778;28;20030;-71
2022/07/19 01:18:12;;;;;;;9.98;3.97;;;;;;;20.66;49.27;96061.13;5112620;28;20479;-72
2022/07/19 01:20:38;;;;;;;6.15;3.65;;;;;;;20.64;49.11;96057.81;5112822;28;20027;-71
2022/07/19 01:23:03;;;;;;;5.22;3.83;;;;;;;20.67;50.32;96057.41;5112598;28;20538;-71
2022/07/19 01:25:31;;;;;;;5.00;3.97;;;;;;;20.67;51.61;96067.28;5091477;28;20714;-72
2022/07/19 01:27:57;;;;;;;6.28;3.95;;;;;;;20.66;51.38;96062.94;5098695;28;20513;-72
2022/07/19 01:30:25;;;;;;;6.53;3.75;;;;;;;20.63;50.19;96060.69;5096340;28;20024;-72
2022/07/19 01:32:52;;;;;;;7.35;3.92;;;;;;;20.65;48.86;96058.63;5105735;28;20032;-72
2022/07/19 01:35:18;;;;;;;10.13;4.00;;;;;;;20.64;50.66;96057.81;5106195;28;20486;-72
2022/07/19 01:37:43;;;;;;;8.98;4.30;;;;;;;20.58;51.91;96059.44;5112338;28;20106;-71
2022/07/19 01:40:11;;;;;;;5.95;3.60;;;;;;;20.46;50.94;96061.81;5112718;28;20126;-71
2022/07/19 01:42:38;;;;;;;4.53;3.90;;;;;;;20.43;51.61;96062.22;5078990;28;20135;-73
2022/07/19 01:45:05;;;;;;;8.50;3.92;;;;;;;20.40;51.16;96062.59;5105072;28;20072;-72
2022/07/19 01:47:31;;;;;;;4.80;3.90;;;;;;;20.36;50.37;96065.84;5111949;28;20081;-71
2022/07/19 01:49:56;;;;;;;10.45;4.38;;;;;;;20.35;49.76;96067.72;5110456;28;20019;-72
2022/07/19 01:52:21;;;;;;;7.70;3.83;;;;;;;20.28;49.95;96070.34;5094662;28;20118;-71
2022/07/19 01:54:47;;;;;;;5.85;4.32;;;;;;;20.33;49.85;96067.06;5087608;28;20036;-72
2022/07/19 01:57:12;;;;;;;6.80;4.60;;;;;;;20.36;49.44;96068.53;5095352;28;20032;-72
2022/07/19 01:59:38;;;;;;;7.03;4.57;;;;;;;20.39;49.58;96062.78;5112360;28;20081;-72
2022/07/19 02:02:05;;;;;;;4.90;3.92;;;;;;;20.40;48.56;96072.47;5111679;28;20056;-72
2022/07/19 02:04:30;;;;;;;7.82;4.00;;;;;;;20.40;50.36;96069.78;5111613;28;20020;-72
2022/07/19 02:06:55;;;;;;;7.35;4.10;;;;;;;20.34;51.95;96071.41;5111424;28;20031;-71
2022/07/19 02:09:21;;;;;;;9.15;3.70;;;;;;;20.28;52.60;96069.50;5111354;28;20519;-71
2022/07/19 02:11:46;;;;;;;5.05;4.05;;;;;;;20.23;53.96;96062.06;5111700;28;20027;-72
2022/07/19 02:14:12;;;;;;;7.72;4.47;;;;;;;20.21;51.16;96065.94;5107452;28;20025;-72
2022/07/19 02:16:39;;;;;;;7.40;3.50;;;;;;;20.17;52.32;96063.66;5094211;28;20023;-72
2022/07/19 02:19:06;;;;;;;5.93;4.03;;;;;;;20.11;51.92;96056.41;5111478;28;20047;-72
2022/07/19 02:21:32;;;;;;;9.90;4.30;;;;;;;20.05;52.68;96059.84;5102795;28;20089;-72
2022/07/19 02:23:57;;;;;;;5.72;3.97;;;;;;;20.02;53.52;96060.25;5080495;28;20021;-71
2022/07/19 02:26:23;;;;;;;11.18;4.78;;;;;;;19.99;52.55;96056.09;5079644;28;20024;-71
2022/07/19 02:28:48;;;;;;;7.00;3.58;;;;;;;19.95;51.64;96052.16;5088078;28;20027;-72
2022/07/19 02:31:14;;;;;;;7.10;3.83;;;;;;;19.95;52.55;96054.84;5090870;28;20053;-72
2022/07/19 02:33:39;;;;;;;10.70;4.30;;;;;;;19.96;51.14;96050.34;5090084;28;20537;-72
2022/07/19 02:36:05;;;;;;;4.07;3.70;;;;;;;19.99;52.08;96050.75;5090267;28;20046;-72
2022/07/19 02:38:30;;;;;;;9.05;4.50;;;;;;;19.94;52.34;96047.84;5089490;28;20016;-71
2022/07/19 02:40:56;;;;;;;8.38;4.30;;;;;;;19.90;55.55;96042.06;5091429;28;20024;-72
2022/07/19 02:43:21;;;;;;;5.57;3.55;;;;;;;19.88;54.19;96035.22;5090521;28;20024;-72
2022/07/19 02:45:47;;;;;;;5.25;4.00;;;;;;;19.85;53.40;96038.28;5095186;28;20099;-72
2022/07/19 02:48:12;;;;;;;6.45;4.22;;;;;;;19.80;53.73;96038.84;5088804;28;20024;-72
2022/07/19 02:50:38;;;;;;;8.35;4.35;;;;;;;19.74;54.65;96042.31;5095684;28;20020;-72
2022/07/19 02:53:03;;;;;;;6.72;3.95;;;;;;;19.69;55.10;96047.41;5104092;28;20020;-71
2022/07/19 02:55:29;;;;;;;6.60;4.00;;;;;;;19.67;53.88;96050.25;5104407;28;20080;-72
2022/07/19 02:57:54;;;;;;;8.95;3.83;;;;;;;19.69;54.49;96044.72;5107517;28;20023;-71
2022/07/19 03:00:20;;;;;;;5.40;3.80;;;;;;;19.70;55.92;96041.84;5110575;28;20028;-71
2022/07/19 03:02:45;;;;;;;7.88;3.85;;;;;;;19.74;54.60;96043.13;5110680;28;20035;-72
2022/07/19 03:05:11;;;;;;;13.30;3.72;;;;;;;19.75;54.56;96041.28;5110763;28;20050;-71
2022/07/19 03:07:36;;;;;;;5.65;4.40;;;;;;;19.71;54.59;96048.84;5110808;28;20072;-72
2022/07/19 03:10:02;;;;;;;12.85;4.32;;;;;;;19.68;55.22;96046.56;5110616;28;20446;-72
2022/07/19 03:12:28;;;;;;;7.35;4.40;;;;;;;19.68;55.15;96045.75;5110319;28;20436;-72
2022/07/19 03:14:53;;;;;;;6.85;4.20;;;;;;;19.68;54.87;96046.56;5101303;28;20055;-72
2022/07/19 03:17:18;;;;;;;6.57;4.40;;;;;;;19.69;54.98;96050.06;5096289;28;20410;-71
2022/07/19 03:19:45;;;;;;;7.22;3.80;;;;;;;19.64;56.34;96053.31;5090218;28;20056;-71
2022/07/19 03:22:11;;;;;;;4.45;3.80;;;;;;;19.61;55.51;96043.81;5096251;28;20031;-72
2022/07/19 03:24:36;;;;;;;6.05;4.05;;;;;;;19.61;54.86;96048.34;5096926;28;20020;-72
2022/07/19 03:27:02;;;;;;;4.32;3.65;;;;;;;19.62;54.85;96052.66;5093088;28;20012;-72
2022/07/19 03:29:27;;;;;;;7.20;5.03;;;;;;;19.65;54.87;96054.94;5092212;28;20074;-72
2022/07/19 03:31:52;;;;;;;6.75;3.97;;;;;;;19.65;55.89;96052.28;5110331;28;20069;-72
2022/07/19 03:34:18;;;;;;;13.32;4.72;;;;;;;19.67;55.44;96063.59;5104221;28;20031;-72
2022/07/19 03:36:43;;;;;;;7.50;4.18;;;;;;;19.62;54.59;96058.00;5110158;28;20088;-71
2022/07/19 03:39:08;;;;;;;8.85;4.13;;;;;;;19.61;54.54;96057.16;5110221;28;20043;-71
2022/07/19 03:41:34;;;;;;;8.05;4.25;;;;;;;19.56;54.94;96056.06;5097453;28;20032;-72
2022/07/19 03:43:59;;;;;;;11.32;4.05;;;;;;;19.55;55.47;96065.09;5104867;28;20030;-71
2022/07/19 03:46:26;;;;;;;8.07;3.83;;;;;;;19.55;58.19;96063.28;5080795;28;20463;-73
2022/07/19 03:48:51;;;;;;;6.72;4.35;;;;;;;19.53;56.91;96059.97;5096713;28;20612;-72
2022/07/19 03:51:17;;;;;;;4.78;3.80;;;;;;;19.49;56.64;96066.72;5110309;28;20102;-71
2022/07/19 03:53:42;;;;;;;8.25;3.85;;;;;;;19.45;55.11;96065.41;5080219;28;20032;-71
2022/07/19 03:56:08;;;;;;;5.38;4.22;;;;;;;19.43;58.42;96068.28;5083419;28;20491;-71
2022/07/19 03:58:33;;;;;;;6.28;4.25;;;;;;;19.43;57.05;96070.13;5085721;28;20035;-73
2022/07/19 04:00:58;;;;;;;7.03;4.20;;;;;;;19.41;57.69;96067.66;5092257;28;20016;-71
2022/07/19 04:03:24;;;;;;;6.68;4.10;;;;;;;19.43;57.00;96062.09;5090225;28;20024;-73
2022/07/19 04:05:50;;;;;;;4.72;4.28;;;;;;;19.37;56.35;96076.22;5088568;28;20488;-72
2022/07/19 04:08:15;;;;;;;9.43;4.38;;;;;;;19.36;57.79;96078.06;5089584;28;20099;-73
2022/07/19 04:10:41;;;;;;;7.68;4.30;;;;;;;19.35;56.58;96072.91;5089573;28;20494;-72
2022/07/19 04:13:07;;;;;;;5.07;4.35;;;;;;;19.32;59.66;96066.09;5075357;28;20027;-72
2022/07/19 04:15:32;;;;;;;8.73;4.43;;;;;;;19.27;57.95;96073.84;5089420;28;20407;-72
2022/07/19 04:17:58;;;;;;;9.68;4.35;;;;;;;19.26;57.79;96081.03;5089346;28;20104;-72
2022/07/19 04:20:23;;;;;;;12.10;4.50;;;;;;;19.27;58.28;96072.00;5089628;28;20078;-71
2022/07/19 04:22:49;;;;;;;7.40;4.45;;;;;;;19.30;57.85;96084.97;5089499;28;20028;-72
2022/07/19 04:25:14;;;;;;;5.70;4.68;;;;;;;19.32;57.96;96080.28;5088133;28;20012;-72
2022/07/19 04:27:40;;;;;;;7.13;4.53;;;;;;;19.35;58.10;96086.25;5079326;28;20413;-72
2022/07/19 04:30:06;;;;;;;10.90;4.88;;;;;;;19.36;59.45;96082.56;5089403;28;20063;-72
2022/07/19 04:32:33;;;;;;;9.63;4.80;;;;;;;19.38;58.75;96085.88;5091523;28;20395;-72
2022/07/19 04:34:59;;;;;;;7.80;4.28;;;;;;;19.39;57.16;96092.88;5093063;28;20012;-72
2022/07/19 04:37:25;;;;;;;6.85;4.07;;;;;;;19.37;59.79;96093.06;5093382;28;20098;-71
2022/07/19 04:39:50;;;;;;;9.13;4.70;;;;;;;19.39;60.52;96084.88;5093189;28;20395;-72
2022/07/19 04:42:16;;;;;;;8.70;4.30;;;;;;;19.44;59.20;96083.28;5096880;28;20031;-72
2022/07/19 04:44:41;;;;;;;13.18;5.20;;;;;;;19.46;58.85;96085.78;5113490;28;20502;-72
2022/07/19 04:47:06;;;;;;;7.10;4.60;;;;;;;19.50;59.04;96088.88;5110524;28;20088;-72
2022/07/19 04:49:32;;;;;;;12.50;4.95;;;;;;;19.52;58.23;96089.53;5092842;28;20114;-72
2022/07/19 04:51:58;;;;;;;11.07;4.75;;;;;;;19.49;60.06;96087.22;5077172;28;20032;-72
2022/07/19 04:54:23;;;;;;;9.10;4.68;;;;;;;19.47;59.15;96088.25;5086204;28;20059;-72
2022/07/19 04:56:48;;;;;;;9.60;4.50;;;;;;;19.51;58.92;96083.38;5092642;28;20151;-72
2022/07/19 04:59:14;;;;;;;6.85;4.57;;;;;;;19.52;58.54;96089.53;5090541;28;20044;-72
2022/07/19 05:01:39;;;;;;;7.30;4.53;;;;;;;19.46;59.10;96091.94;5081976;28;20052;-71
2022/07/19 05:04:05;;;;;;;4.63;4.13;;;;;;;19.52;58.92;96089.53;5092413;28;20047;-72
2022/07/19 05:06:30;;;;;;;10.75;4.55;;;;;;;19.55;59.37;96091.81;5092468;28;20028;-72
2022/07/19 05:08:56;;;;;;;6.88;4.57;;;;;;;19.59;61.00;96093.09;5086411;28;20055;-72
2022/07/19 05:11:22;;;;;;;9.93;4.15;;;;;;;19.63;60.66;96093.53;5084720;28;20032;-72
2022/07/19 05:13:47;;;;;;;7.25;4.75;;;;;;;19.63;60.70;96099.72;5087123;28;20032;-71
2022/07/19 05:16:13;;;;;;;11.25;5.07;;;;;;;19.58;61.14;96096.78;5082861;28;20463;-72
2022/07/19 05:18:38;;;;;;;6.03;4.40;;;;;;;19.59;60.16;96093.91;5083859;28;20051;-72
2022/07/19 05:21:04;;;;;;;9.60;4.22;;;;;;;19.75;59.05;96097.38;5081443;28;20039;-72
2022/07/19 05:23:29;;;;;;;8.55;4.90;;;;;;;19.88;59.11;96099.34;5087190;28;20355;-71
2022/07/19 05:25:54;;;;;;;6.65;4.55;;;;;;;19.97;59.37;96106.25;5087474;28;20031;-71
2022/07/19 05:28:20;;;;;;;16.10;4.40;;;;;;;20.06;59.83;96096.25;5080455;28;20042;-72
2022/07/19 05:30:45;;;;;;;8.70;5.22;;;;;;;20.13;59.84;96101.66;5080672;28;20472;-71
2022/07/19 05:33:11;;;;;;;9.50;4.75;;;;;;;20.19;61.01;96098.22;5090095;28;20471;-71
2022/07/19 05:35:36;;;;;;;7.47;4.45;;;;;;;20.28;60.54;96099.75;5092075;28;20103;-71
2022/07/19 05:38:01;;;;;;;9.35;4.78;;;;;;;20.45;59.65;96102.13;5091939;28;20089;-71
2022/07/19 05:40:27;;;;;;;11.73;5.75;;;;;;;20.67;57.39;96091.34;5081010;28;20399;-71
2022/07/19 05:42:52;;;;;;;5.88;4.30;;;;;;;20.82;56.33;96092.09;5100077;28;20030;-72
2022/07/19 05:45:17;;;;;;;6.13;4.45;;;;;;;20.93;56.49;96098.75;5111881;28;20102;-71
2022/07/19 05:47:43;;;;;;;8.10;5.00;;;;;;;21.03;56.64;96103.75;5109087;28;20479;-72
2022/07/19 05:50:08;;;;;;;9.00;4.65;;;;;;;21.07;56.15;96099.66;5112168;28;20024;-71
2022/07/19 05:52:34;;;;;;;9.32;5.30;;;;;;;21.12;55.61;96099.91;5111860;28;20024;-71
2022/07/19 05:54:59;;;;;;;9.52;4.60;;;;;;;21.18;55.97;96104.44;5112305;28;20027;-71
2022/07/19 05:57:25;;;;;;;17.75;5.20;;;;;;;21.29;55.29;96108.41;5111742;28;20077;-71
2022/07/19 05:59:50;;;;;;;9.63;5.13;;;;;;;21.45;54.33;96098.38;5111874;28;20431;-71
2022/07/19 06:02:16;;;;;;;8.73;5.53;;;;;;;21.59;54.09;96101.94;5111509;28;20044;-71
2022/07/19 06:04:42;;;;;;;10.65;4.55;;;;;;;21.73;53.78;96094.78;5111749;28;20028;-71
2022/07/19 06:07:07;;;;;;;7.32;4.97;;;;;;;21.89;53.04;96105.13;5111695;28;20112;-71
2022/07/19 06:09:32;;;;;;;7.22;4.78;;;;;;;22.11;52.48;96104.09;5095212;28;20441;-70
2022/07/19 06:11:58;;;;;;;13.43;4.63;;;;;;;22.32;52.29;96108.44;5095433;28;20071;-69
2022/07/19 06:14:23;;;;;;;16.08;5.28;;;;;;;22.52;52.29;96108.47;5105552;28;20079;-72
2022/07/19 06:16:48;;;;;;;10.18;5.15;;;;;;;22.72;51.30;96108.44;5095386;28;20445;-72
2022/07/19 06:19:14;;;;;;;14.07;4.88;;;;;;;22.95;51.03;96098.28;5087691;28;20111;-73
2022/07/19 06:21:40;;;;;;;7.45;5.00;;;;;;;23.12;51.17;96106.72;5090019;28;20032;-70
2022/07/19 06:24:06;;;;;;;10.57;6.50;;;;;;;23.29;50.46;96090.97;5086028;28;20028;-71
2022/07/19 06:26:31;;;;;;;9.25;6.22;;;;;;;23.44;49.69;96098.78;5089616;28;20155;-72
2022/07/19 06:28:56;;;;;;;9.90;5.47;;;;;;;23.62;49.96;96098.06;5090778;28;20016;-69
2022/07/19 06:31:22;;;;;;;6.97;5.68;;;;;;;23.87;50.16;96094.63;5088743;28;20547;-71
2022/07/19 06:33:49;;;;;;;9.43;5.85;;;;;;;24.14;50.91;96094.44;5100674;28;20027;-69
2022/07/19 06:36:15;;;;;;;5.63;4.63;;;;;;;24.46;50.30;96091.72;5089392;28;20550;-68
2022/07/19 06:38:43;;;;;;;8.85;4.45;;;;;;;24.68;49.45;96092.13;5088239;28;20031;-70
2022/07/19 06:41:10;;;;;;;6.03;4.68;;;;;;;24.86;47.62;96090.56;5085789;28;20029;-71
2022/07/19 06:43:35;;;;;;;12.32;4.72;;;;;;;25.09;46.16;96083.69;5078916;28;20055;-69
2022/07/19 06:46:01;;;;;;;5.55;4.45;;;;;;;25.36;43.76;96084.19;5076627;28;20032;-69
2022/07/19 06:48:27;;;;;;;5.93;4.57;;;;;;;25.60;43.92;96093.22;5082539;28;20032;-68
2022/07/19 06:50:52;;;;;;;7.78;4.05;;;;;;;25.86;43.36;96093.09;5105367;28;20750;-68
2022/07/19 06:53:18;;;;;;;5.07;4.00;;;;;;;26.36;41.90;96086.56;5099379;28;20044;-69
2022/07/19 06:55:43;;;;;;;6.88;4.78;;;;;;;26.80;40.36;96085.38;5090132;28;20036;-68
2022/07/19 06:58:09;;;;;;;7.90;4.13;;;;;;;27.09;41.08;96083.63;5089636;28;20024;-69
2022/07/19 07:00:34;;;;;;;12.02;5.70;;;;;;;27.48;40.14;96085.75;5090190;28;20031;-69
2022/07/19 07:03:00;;;;;;;9.38;6.00;;;;;;;27.81;39.09;96083.41;5089942;28;20043;-69
2022/07/19 07:05:25;;;;;;;10.25;6.03;;;;;;;28.28;38.85;96079.63;5090258;28;20585;-69
2022/07/19 07:07:52;;;;;;;8.90;5.50;;;;;;;28.68;37.12;96075.94;5089758;28;20461;-69
2022/07/19 07:10:18;;;;;;;8.50;4.63;;;;;;;28.91;37.45;96079.53;5090036;28;20028;-69
2022/07/19 07:12:43;;;;;;;8.05;4.88;;;;;;;29.05;36.57;96071.84;5071396;28;20077;-68
2022/07/19 07:15:09;;;;;;;7.07;4.80;;;;;;;29.25;36.47;96068.59;5089901;28;20016;-68
2022/07/19 07:17:35;;;;;;;7.18;4.90;;;;;;;29.53;35.00;96064.06;5090300;28;20024;-68
2022/07/19 07:20:03;;;;;;;6.93;4.38;;;;;;;29.55;35.73;96066.53;5089935;28;20027;-69
2022/07/19 07:22:28;;;;;;;6.10;3.90;;;;;;;29.60;36.46;96063.88;5089912;28;20039;-68
2022/07/19 07:24:54;;;;;;;5.88;3.60;;;;;;;29.87;35.50;96066.59;5089665;28;20028;-68
2022/07/19 07:27:20;;;;;;;5.93;3.97;;;;;;;29.91;34.98;96061.47;5089686;28;20026;-69
2022/07/19 07:29:45;;;;;;;7.75;3.60;;;;;;;29.98;33.33;96059.38;5089737;28;20047;-71
2022/07/19 07:32:10;;;;;;;5.00;3.97;;;;;;;30.02;33.89;96055.09;5089979;28;20020;-71
2022/07/19 07:34:36;;;;;;;9.38;4.28;;;;;;;30.24;32.41;96062.34;5090230;28;20028;-71
2022/07/19 07:37:01;;;;;;;7.78;3.88;;;;;;;30.25;30.98;96053.09;5089886;28;20019;-71
2022/07/19 07:39:26;;;;;;;7.38;3.80;;;;;;;30.21;31.21;96060.13;5089772;28;20105;-71
2022/07/19 07:41:52;;;;;;;7.85;3.60;;;;;;;30.52;29.96;96052.22;5090107;28;20505;-70
2022/07/19 07:44:17;;;;;;;4.78;3.35;;;;;;;30.98;29.82;96050.88;5110024;28;20024;-70
2022/07/19 07:46:43;;;;;;;4.40;3.67;;;;;;;31.18;29.47;96049.34;5110376;28;20027;-70
2022/07/19 07:49:08;;;;;;;4.53;3.70;;;;;;;31.23;29.49;96049.38;5110315;28;20023;-69
2022/07/19 07:51:34;;;;;;;11.68;4.13;;;;;;;31.64;29.98;96052.25;5110194;28;20038;-70
2022/07/19 07:54:00;;;;;;;4.22;3.47;;;;;;;31.95;27.80;96048.78;5109960;28;20061;-71
2022/07/19 07:56:26;;;;;;;5.00;3.42;;;;;;;32.13;27.62;96045.53;5109960;28;20081;-71
2022/07/19 07:58:51;;;;;;;7.57;3.90;;;;;;;32.42;27.73;96038.75;5110210;28;20020;-71
2022/07/19 08:01:17;;;;;;;3.50;3.13;;;;;;;32.50;27.98;96040.09;5109663;28;20039;-71
2022/07/19 08:03:43;;;;;;;4.20;3.78;;;;;;;32.79;27.55;96045.75;5110217;28;20080;-70
2022/07/19 08:06:09;;;;;;;3.90;3.20;;;;;;;32.95;27.31;96043.03;5112052;28;20432;-71
2022/07/19 08:08:34;;;;;;;6.90;3.65;;;;;;;32.99;26.68;96041.38;5113937;28;20502;-71
2022/07/19 08:11:00;;;;;;;6.55;3.60;;;;;;;33.17;27.83;96033.69;5113886;28;20070;-71
2022/07/19 08:13:25;;;;;;;3.65;2.90;;;;;;;33.46;26.76;96036.56;5113842;28;20043;-70
2022/07/19 08:15:50;;;;;;;4.72;3.90;;;;;;;33.54;26.58;96026.97;5113766;28;20471;-71
2022/07/19 08:18:17;;;;;;;3.10;2.88;;;;;;;33.72;26.25;96034.53;5113745;28;20016;-71
2022/07/19 08:20:43;;;;;;;8.98;3.50;;;;;;;33.90;26.31;96029.47;5114012;28;20039;-70
2022/07/19 08:23:08;;;;;;;4.43;3.55;;;;;;;33.78;26.71;96031.75;5113717;28;20087;-70
2022/07/19 08:25:34;;;;;;;10.27;3.70;;;;;;;33.73;26.04;96032.59;5113802;28;20028;-71
2022/07/19 08:28:00;;;;;;;5.53;3.30;;;;;;;33.64;27.34;96020.66;5113438;28;20035;-70
2022/07/19 08:30:26;;;;;;;4.82;3.50;;;;;;;33.91;26.92;96025.63;5113544;28;20023;-70
2022/07/19 08:32:51;;;;;;;5.47;3.70;;;;;;;33.89;26.52;96025.09;5113549;28;20040;-71
2022/07/19 08:35:17;;;;;;;7.53;3.55;;;;;;;34.06;23.30;96023.94;5113592;28;20443;-71
2022/07/19 08:37:42;;;;;;;6.22;3.50;;;;;;;34.06;23.91;96021.19;5113883;28;20066;-71
2022/07/19 08:40:08;;;;;;;7.00;2.92;;;;;;;34.26;23.36;96020.19;5108798;28;20020;-71
2022/07/19 08:42:34;;;;;;;5.28;3.47;;;;;;;34.35;24.64;96014.94;5099476;28;20036;-70
2022/07/19 08:45:04;;;;;;;5.68;3.45;;;;;;;34.16;24.02;96021.13;5113574;28;20084;-71
2022/07/19 08:47:31;;;;;;;12.88;3.53;;;;;;;34.54;22.28;96015.88;5113278;28;20092;-71
2022/07/19 08:49:58;;;;;;;6.93;3.72;;;;;;;34.16;22.69;96018.41;5113176;28;20452;-71
2022/07/19 08:52:24;;;;;;;7.57;4.32;;;;;;;34.10;23.35;96024.97;5113157;28;20026;-68
2022/07/19 08:54:49;;;;;;;11.27;3.65;;;;;;;33.32;24.52;96006.34;5113265;28;20040;-69
2022/07/19 08:59:59;;;;;;;4.50;3.50;;;;;;;33.61;23.79;96016.56;5113378;28;20165;-69
2022/07/19 09:02:24;;;;;;;7.18;3.13;;;;;;;34.38;22.09;96001.53;5112560;28;20123;-69
2022/07/19 09:05:08;;;;;;;6.97;3.28;;;;;;;33.77;23.64;96008.28;5113101;28;20466;-69
2022/07/19 09:07:38;;;;;;;6.65;3.33;;;;;;;34.09;22.60;96010.53;5112874;28;20027;-69
2022/07/19 09:10:22;;;;;;;6.43;3.28;;;;;;;34.42;22.81;96004.50;5113019;28;20547;-69
2022/07/19 09:13:07;;;;;;;7.05;3.58;;;;;;;34.42;23.19;96004.50;5112896;28;20089;-69
2022/07/19 09:15:46;;;;;;;6.82;3.30;;;;;;;34.66;21.98;96009.22;5112844;28;20027;-70
2022/07/19 09:18:16;;;;;;;10.35;3.63;;;;;;;34.16;22.87;96004.75;5112478;28;20012;-70
2022/07/19 09:20:43;;;;;;;5.85;3.40;;;;;;;34.03;23.41;95997.19;5112770;28;20031;-70
2022/07/19 09:23:08;;;;;;;8.23;3.40;;;;;;;34.73;22.51;95996.00;5112619;28;20025;-70
2022/07/19 09:25:35;;;;;;;8.57;3.38;;;;;;;34.65;22.80;95982.97;5112547;28;20509;-71
2022/07/19 09:28:00;;;;;;;3.60;3.30;;;;;;;34.46;22.88;95994.63;5112238;28;20047;-72
2022/07/19 09:30:37;;;;;;;4.28;2.90;;;;;;;34.32;22.58;95990.91;5112018;28;20054;-71
2022/07/19 09:33:07;;;;;;;4.63;3.10;;;;;;;34.82;22.14;95986.06;5107647;28;20022;-70
2022/07/19 09:35:38;;;;;;;3.63;3.25;;;;;;;34.65;23.79;95981.03;5091800;28;20019;-70
2022/07/19 09:38:26;;;;;;;5.00;3.33;;;;;;;35.31;22.95;95982.47;5091875;28;20044;-70
2022/07/19 09:41:07;;;;;;;3.72;3.08;;;;;;;35.61;22.84;95973.03;5091748;28;20059;-70
2022/07/19 09:43:51;;;;;;;4.15;3.17;;;;;;;35.57;22.38;95969.28;5106497;28;20092;-71
2022/07/19 09:46:28;;;;;;;3.95;3.22;;;;;;;35.56;23.43;95962.16;5112422;28;20451;-71
2022/07/19 09:49:01;;;;;;;5.38;3.75;;;;;;;35.90;22.44;95957.53;5111916;28;20030;-71
2022/07/19 09:51:26;;;;;;;3.75;3.40;;;;;;;36.17;23.30;95956.00;5112066;28;20414;-71
2022/07/19 09:53:52;;;;;;;5.32;3.40;;;;;;;36.34;22.84;95952.69;5112468;28;20031;-73
2022/07/19 09:56:18;;;;;;;6.40;3.10;;;;;;;36.14;24.12;95946.47;5098813;28;20028;-73
2022/07/19 09:58:44;;;;;;;5.60;3.85;;;;;;;36.27;23.61;95945.69;5083583;28;20507;-76
2022/07/19 10:01:10;;;;;;;4.88;3.67;;;;;;;36.90;23.30;95948.06;5095141;28;20044;-75
2022/07/19 10:03:35;;;;;;;4.88;3.25;;;;;;;37.07;23.48;95949.41;5107315;28;20471;-76
2022/07/19 10:06:01;;;;;;;3.50;3.30;;;;;;;36.37;24.51;95941.16;5094641;28;20081;-67
2022/07/19 10:08:27;;;;;;;3.40;3.20;;;;;;;36.83;25.53;95937.53;5100086;28;20035;-67
2022/07/19 10:10:53;;;;;;;9.27;3.97;;;;;;;37.18;25.07;95939.84;5105496;28;20012;-67
2022/07/19 10:13:19;;;;;;;8.48;3.70;;;;;;;37.46;24.26;95933.44;5108109;28;20034;-67
2022/07/19 10:15:47;;;;;;;5.60;3.92;;;;;;;37.64;23.54;95932.50;5088216;28;20019;-67
2022/07/19 10:18:20;;;;;;;6.78;4.38;;;;;;;37.67;23.93;95929.13;5106384;28;20027;-67
2022/07/19 10:20:49;;;;;;;4.00;3.70;;;;;;;37.30;24.70;95922.00;5102857;28;20028;-67
2022/07/19 10:23:14;;;;;;;4.60;4.20;;;;;;;36.84;25.28;95919.97;5103516;28;20038;-67
2022/07/19 10:25:40;;;;;;;4.95;4.10;;;;;;;37.44;24.83;95916.47;5097415;28;20406;-67
2022/07/19 10:28:05;;;;;;;4.43;3.80;;;;;;;37.71;24.41;95909.31;5092098;28;20032;-67
2022/07/19 10:30:40;;;;;;;4.00;3.70;;;;;;;37.38;25.15;95902.88;5100805;28;20030;-68
2022/07/19 10:33:26;;;;;;;4.47;3.47;;;;;;;37.61;24.04;95905.66;5100783;28;20035;-67
2022/07/19 10:35:52;;;;;;;4.20;3.88;;;;;;;37.48;24.72;95901.03;5107178;28;20027;-66
2022/07/19 10:38:17;;;;;;;7.50;4.40;;;;;;;37.80;24.71;95897.25;5106479;28;20053;-67
2022/07/19 10:40:44;;;;;;;5.60;4.40;;;;;;;38.64;23.24;95902.19;5095076;28;20103;-67
2022/07/19 10:43:13;;;;;;;4.22;3.85;;;;;;;38.25;23.44;95890.88;5101546;28;20093;-66
2022/07/19 10:45:41;;;;;;;8.80;3.90;;;;;;;38.36;23.40;95896.91;5090528;28;20028;-69
2022/07/19 10:48:10;;;;;;;8.52;3.80;;;;;;;38.63;22.11;95888.78;5090804;28;20089;-68
2022/07/19 10:50:54;;;;;;;3.90;3.60;;;;;;;38.63;22.96;95888.78;5089084;28;20039;-69
2022/07/19 10:53:41;;;;;;;5.53;3.83;;;;;;;38.62;22.72;95885.22;5092346;28;20024;-68
2022/07/19 10:56:24;;;;;;;4.00;3.70;;;;;;;38.45;22.70;95888.72;5090106;28;20039;-67
2022/07/19 10:58:58;;;;;;;4.30;3.92;;;;;;;37.98;23.37;95875.38;5095539;28;20059;-67
2022/07/19 11:01:26;;;;;;;5.80;3.40;;;;;;;38.31;22.08;95882.47;5089319;28;20055;-68
2022/07/19 11:03:53;;;;;;;3.47;3.17;;;;;;;38.36;22.54;95868.63;5097812;28;20028;-68
2022/07/19 11:06:22;;;;;;;3.53;3.33;;;;;;;38.24;22.11;95875.50;5083844;28;20016;-62
2022/07/19 11:08:47;;;;;;;3.55;3.35;;;;;;;38.35;22.44;95870.53;5082715;28;20565;-62
2022/07/19 11:11:16;;;;;;;4.38;3.80;;;;;;;38.77;23.24;95863.91;5089918;28;20142;-69
2022/07/19 11:13:52;;;;;;;5.65;3.42;;;;;;;39.25;21.25;95864.94;5089897;28;20020;-69
2022/07/19 11:16:19;;;;;;;3.78;3.47;;;;;;;38.91;22.08;95861.03;5089870;28;20090;-72
2022/07/19 11:18:45;;;;;;;5.95;3.63;;;;;;;39.57;20.68;95859.25;5090018;28;20062;-67
2022/07/19 11:21:12;;;;;;;3.85;3.58;;;;;;;39.64;20.25;95854.88;5070936;28;20027;-68
2022/07/19 11:23:39;;;;;;;4.07;3.65;;;;;;;39.00;21.35;95842.59;5093952;28;20035;-67
2022/07/19 11:26:07;;;;;;;6.43;3.90;;;;;;;38.69;22.31;95838.81;5091117;28;20032;-67
2022/07/19 11:28:33;;;;;;;4.07;3.70;;;;;;;38.52;23.42;95839.56;5076314;28;20028;-67
2022/07/19 11:30:59;;;;;;;4.60;4.18;;;;;;;38.65;22.69;95843.31;5102542;28;20028;-68